Time;durP1;ratioP1;P1;durP2;ratioP2;P2;SDS_P1;SDS_P2;PMS_P1;PMS_P2;Temp;Humidity;BMP_temperature;BMP_pressure;BME280_temperature;BME280_humidity;BME280_pressure;Samples;Min_cycle;Max_cycle;Signal;HPM_P1;HPM_P2
2022/11/18 00:00:12;;;;;;;7.37;3.43;;;;;;;;;;506777;28;1514;-61
2022/11/18 00:00:27;;;;;;;7.45;3.50;;;;;;;;;;510639;28;1020;-61
2022/11/18 00:00:43;;;;;;;7.53;3.60;;;;;;;;;;509999;28;1317;-62
2022/11/18 00:01:13;;;;;;;6.93;3.60;;;;;;;;;;510665;28;1175;-62
2022/11/18 00:01:28;;;;;;;7.13;3.72;;;;;;;;;;511760;28;1315;-61
2022/11/18 00:01:43;;;;;;;8.50;4.00;;;;;;;;;;513230;28;1163;-62
2022/11/18 00:01:58;;;;;;;8.60;4.17;;;;;;;;;;511366;28;1182;-61
2022/11/18 00:02:14;;;;;;;8.03;4.30;;;;;;;;;;509872;28;1270;-61
2022/11/18 00:02:30;;;;;;;8.07;4.53;;;;;;;;;;511074;28;1128;-61
2022/11/18 00:02:45;;;;;;;7.78;4.50;;;;;;;;;;508772;28;1255;-62
2022/11/18 00:03:00;;;;;;;8.75;4.45;;;;;;;;;;509407;28;1115;-62
2022/11/18 00:03:16;;;;;;;9.83;4.50;;;;;;;;;;510526;28;1108;-60
2022/11/18 00:03:31;;;;;;;8.77;4.22;;;;;;;;;;510511;28;1268;-61
2022/11/18 00:03:47;;;;;;;8.63;4.30;;;;;;;;;;511097;28;1269;-61
2022/11/18 00:04:02;;;;;;;10.05;4.50;;;;;;;;;;511630;28;1436;-61
2022/11/18 00:04:18;;;;;;;9.63;4.63;;;;;;;;;;512159;28;1081;-61
2022/11/18 00:04:33;;;;;;;7.97;4.60;;;;;;;;;;510373;28;1004;-61
2022/11/18 00:04:48;;;;;;;8.48;4.60;;;;;;;;;;510817;28;1077;-61
2022/11/18 00:05:04;;;;;;;7.27;4.23;;;;;;;;;;510209;28;1343;-61
2022/11/18 00:05:19;;;;;;;7.13;4.00;;;;;;;;;;508889;28;985;-62
2022/11/18 00:05:34;;;;;;;7.55;3.90;;;;;;;;;;510430;28;1169;-62
2022/11/18 00:05:56;;;;;;;6.97;3.80;;;;;;;;;;511157;28;1219;-61
2022/11/18 00:06:14;;;;;;;8.38;4.00;;;;;;;;;;509781;28;1310;-61
2022/11/18 00:06:29;;;;;;;9.77;4.03;;;;;;;;;;511829;28;1100;-61
2022/11/18 00:06:45;;;;;;;8.80;4.00;;;;;;;;;;512784;28;1131;-61
2022/11/18 00:07:00;;;;;;;7.25;3.88;;;;;;;;;;512042;28;1387;-62
2022/11/18 00:07:15;;;;;;;7.13;3.80;;;;;;;;;;514263;28;1043;-61
2022/11/18 00:07:31;;;;;;;9.97;3.93;;;;;;;;;;511812;28;1187;-61
2022/11/18 00:07:46;;;;;;;10.18;4.00;;;;;;;;;;510373;28;1205;-61
2022/11/18 00:08:01;;;;;;;8.70;3.97;;;;;;;;;;509994;28;1142;-62
2022/11/18 00:08:16;;;;;;;8.30;3.83;;;;;;;;;;509053;28;1118;-62
2022/11/18 00:08:33;;;;;;;7.17;3.70;;;;;;;;;;510609;28;1396;-61
2022/11/18 00:08:48;;;;;;;6.70;3.80;;;;;;;;;;508682;29;1138;-61
2022/11/18 00:09:03;;;;;;;7.67;3.93;;;;;;;;;;508669;29;1084;-62
2022/11/18 00:09:18;;;;;;;8.20;3.83;;;;;;;;;;509062;28;1183;-61
2022/11/18 00:09:34;;;;;;;7.40;3.70;;;;;;;;;;508259;28;1368;-61
2022/11/18 00:09:49;;;;;;;7.93;3.60;;;;;;;;;;510641;28;1120;-61
2022/11/18 00:10:05;;;;;;;9.30;3.50;;;;;;;;;;510734;28;1209;-62
2022/11/18 00:10:20;;;;;;;8.80;3.47;;;;;;;;;;510714;28;1109;-61
2022/11/18 00:10:37;;;;;;;7.53;3.50;;;;;;;;;;511913;28;1318;-61
2022/11/18 00:10:53;;;;;;;6.70;3.42;;;;;;;;;;515240;28;1064;-61
2022/11/18 00:11:11;;;;;;;7.18;3.38;;;;;;;;;;515303;28;1150;-61
2022/11/18 00:14:26;;;;;;;8.13;3.15;;;;;;;;;;514280;28;959;-61
2022/11/18 00:14:41;;;;;;;7.10;3.28;;;;;;;;;;511441;28;1685;-61
2022/11/18 00:14:56;;;;;;;8.80;3.27;;;;;;;;;;512927;28;1910;-60
2022/11/18 00:15:11;;;;;;;9.83;3.17;;;;;;;;;;512496;28;997;-61
2022/11/18 00:15:27;;;;;;;8.38;3.10;;;;;;;;;;510340;28;1316;-60
2022/11/18 00:15:42;;;;;;;7.40;3.03;;;;;;;;;;512298;28;1221;-61
2022/11/18 00:16:11;;;;;;;6.97;2.90;;;;;;;;;;511780;28;1184;-61
2022/11/18 00:16:26;;;;;;;9.38;3.10;;;;;;;;;;512222;28;1749;-61
2022/11/18 00:16:41;;;;;;;7.67;3.13;;;;;;;;;;511580;28;1167;-62
2022/11/18 00:16:59;;;;;;;7.60;2.90;;;;;;;;;;512744;28;1148;-61
2022/11/18 00:17:15;;;;;;;6.82;2.92;;;;;;;;;;510885;28;1713;-60
2022/11/18 00:17:31;;;;;;;6.70;3.10;;;;;;;;;;512006;28;1226;-61
2022/11/18 00:17:46;;;;;;;8.98;3.30;;;;;;;;;;512336;28;1019;-61
2022/11/18 00:18:01;;;;;;;10.70;3.30;;;;;;;;;;510850;28;1066;-61
2022/11/18 00:18:17;;;;;;;9.70;3.40;;;;;;;;;;510363;28;1328;-60
2022/11/18 00:18:32;;;;;;;9.13;3.57;;;;;;;;;;514641;28;1059;-60
2022/11/18 00:18:48;;;;;;;8.32;3.50;;;;;;;;;;512185;28;1369;-61
2022/11/18 00:19:03;;;;;;;7.80;3.43;;;;;;;;;;511092;28;1223;-61
2022/11/18 00:19:21;;;;;;;8.03;3.30;;;;;;;;;;511082;28;1152;-60
2022/11/18 00:19:39;;;;;;;7.90;3.10;;;;;;;;;;510459;28;1057;-60
2022/11/18 00:19:54;;;;;;;9.38;3.08;;;;;;;;;;510717;28;1171;-60
2022/11/18 00:20:09;;;;;;;9.50;3.10;;;;;;;;;;512332;28;1146;-61
2022/11/18 00:20:25;;;;;;;8.25;3.30;;;;;;;;;;513020;28;1127;-61
2022/11/18 00:20:40;;;;;;;7.83;3.50;;;;;;;;;;511771;28;1279;-61
2022/11/18 00:21:00;;;;;;;9.17;3.47;;;;;;;;;;512807;28;1154;-61
2022/11/18 00:21:16;;;;;;;6.63;3.10;;;;;;;;;;515485;28;1150;-60
2022/11/18 00:21:31;;;;;;;5.97;2.83;;;;;;;;;;513940;28;1099;-61
2022/11/18 00:21:47;;;;;;;6.57;2.90;;;;;;;;;;513925;28;1377;-60
2022/11/18 00:22:04;;;;;;;8.33;3.20;;;;;;;;;;515424;28;1147;-60
2022/11/18 00:22:19;;;;;;;7.22;2.92;;;;;;;;;;514295;28;1131;-61
2022/11/18 00:22:35;;;;;;;8.32;2.97;;;;;;;;;;514666;28;1229;-61
2022/11/18 00:22:50;;;;;;;8.77;3.13;;;;;;;;;;514380;28;1139;-60
2022/11/18 00:23:05;;;;;;;7.40;3.00;;;;;;;;;;515116;28;1151;-61
2022/11/18 00:23:20;;;;;;;7.40;3.00;;;;;;;;;;512490;28;1583;-61
2022/11/18 00:23:37;;;;;;;7.47;3.10;;;;;;;;;;513350;28;997;-60
2022/11/18 00:23:52;;;;;;;7.25;3.25;;;;;;;;;;511530;28;1146;-61
2022/11/18 00:24:07;;;;;;;9.70;3.20;;;;;;;;;;512889;28;1258;-61
2022/11/18 00:24:24;;;;;;;10.17;3.07;;;;;;;;;;513153;28;1234;-60
2022/11/18 00:24:39;;;;;;;8.07;3.22;;;;;;;;;;513152;28;1122;-61
2022/11/18 00:24:54;;;;;;;8.18;3.42;;;;;;;;;;511979;28;1313;-61
2022/11/18 00:25:09;;;;;;;7.07;3.23;;;;;;;;;;512937;28;1074;-60
2022/11/18 00:25:25;;;;;;;6.23;3.10;;;;;;;;;;515046;28;1154;-61
2022/11/18 00:25:41;;;;;;;8.73;3.28;;;;;;;;;;513037;28;1201;-61
2022/11/18 00:26:11;;;;;;;9.57;3.40;;;;;;;;;;513434;28;1156;-60
2022/11/18 00:26:26;;;;;;;7.35;3.00;;;;;;;;;;511145;28;1160;-60
2022/11/18 00:26:41;;;;;;;6.83;2.93;;;;;;;;;;510918;28;1037;-61
2022/11/18 00:26:57;;;;;;;6.17;2.80;;;;;;;;;;511158;28;1471;-61
2022/11/18 00:27:12;;;;;;;6.60;2.90;;;;;;;;;;511138;28;1610;-61
2022/11/18 00:27:30;;;;;;;7.20;3.00;;;;;;;;;;510497;28;1210;-61
2022/11/18 00:27:46;;;;;;;7.18;3.03;;;;;;;;;;513254;28;1068;-61
2022/11/18 00:28:01;;;;;;;6.50;3.00;;;;;;;;;;511775;28;1135;-62
2022/11/18 00:28:16;;;;;;;8.90;3.10;;;;;;;;;;509210;29;1398;-61
2022/11/18 00:28:32;;;;;;;9.90;3.20;;;;;;;;;;506038;29;1171;-61
2022/11/18 00:28:47;;;;;;;8.32;3.25;;;;;;;;;;508176;29;1088;-61
2022/11/18 00:29:03;;;;;;;9.50;3.60;;;;;;;;;;510138;28;1129;-61
2022/11/18 00:29:19;;;;;;;9.43;3.50;;;;;;;;;;509465;28;1233;-60
2022/11/18 00:29:34;;;;;;;6.97;3.15;;;;;;;;;;507023;28;1372;-61
2022/11/18 00:29:50;;;;;;;7.20;3.30;;;;;;;;;;511839;28;1128;-61
2022/11/18 00:30:06;;;;;;;6.60;3.10;;;;;;;;;;510912;28;1282;-60
2022/11/18 00:30:21;;;;;;;7.28;3.03;;;;;;;;;;511278;28;1099;-61
2022/11/18 00:30:36;;;;;;;8.20;3.20;;;;;;;;;;511426;28;1107;-60
2022/11/18 00:30:52;;;;;;;6.40;3.07;;;;;;;;;;508511;28;1217;-61
2022/11/18 00:31:12;;;;;;;5.43;3.10;;;;;;;;;;510642;28;1055;-61
2022/11/18 00:31:27;;;;;;;6.15;3.20;;;;;;;;;;510691;28;1147;-61
2022/11/18 00:31:43;;;;;;;7.23;3.30;;;;;;;;;;508667;28;1309;-61
2022/11/18 00:31:58;;;;;;;8.30;3.40;;;;;;;;;;512184;28;1107;-61
2022/11/18 00:32:13;;;;;;;7.17;3.20;;;;;;;;;;513213;28;1139;-61
2022/11/18 00:32:29;;;;;;;6.20;3.17;;;;;;;;;;512066;28;1181;-61
2022/11/18 00:32:44;;;;;;;6.60;3.17;;;;;;;;;;510302;28;1430;-61
2022/11/18 00:32:59;;;;;;;6.90;3.20;;;;;;;;;;509926;28;1131;-61
2022/11/18 00:33:14;;;;;;;7.43;3.50;;;;;;;;;;511086;28;1151;-61
2022/11/18 00:33:30;;;;;;;7.33;3.50;;;;;;;;;;511241;28;1100;-61
2022/11/18 00:33:46;;;;;;;8.25;3.42;;;;;;;;;;513266;28;1037;-60
2022/11/18 00:34:01;;;;;;;8.20;3.33;;;;;;;;;;511742;28;1131;-61
2022/11/18 00:34:17;;;;;;;7.43;3.40;;;;;;;;;;512832;28;1195;-61
2022/11/18 00:34:33;;;;;;;7.68;3.60;;;;;;;;;;513550;28;1116;-61
2022/11/18 00:34:48;;;;;;;6.70;3.57;;;;;;;;;;512906;28;1071;-61
2022/11/18 00:35:04;;;;;;;6.63;3.53;;;;;;;;;;511372;28;1924;-61
2022/11/18 00:35:19;;;;;;;7.82;3.38;;;;;;;;;;511299;28;1729;-61
2022/11/18 00:35:34;;;;;;;8.37;3.30;;;;;;;;;;512986;28;1249;-61
2022/11/18 00:35:54;;;;;;;7.68;3.28;;;;;;;;;;513159;28;1147;-61
2022/11/18 00:36:11;;;;;;;8.05;3.60;;;;;;;;;;512522;28;1233;-61
2022/11/18 00:36:27;;;;;;;7.47;3.60;;;;;;;;;;512586;28;1092;-61
2022/11/18 00:36:43;;;;;;;8.70;3.58;;;;;;;;;;512007;28;1116;-61
2022/11/18 00:36:59;;;;;;;7.80;3.40;;;;;;;;;;512599;28;1144;-60
2022/11/18 00:37:14;;;;;;;6.80;3.17;;;;;;;;;;509998;28;1203;-61
2022/11/18 00:37:29;;;;;;;9.53;3.60;;;;;;;;;;511565;28;999;-61
2022/11/18 00:37:44;;;;;;;9.60;3.83;;;;;;;;;;513869;28;1124;-61
2022/11/18 00:38:00;;;;;;;7.35;3.40;;;;;;;;;;512069;28;1088;-61
2022/11/18 00:38:15;;;;;;;7.60;3.17;;;;;;;;;;512899;28;1150;-61
2022/11/18 00:38:30;;;;;;;7.60;3.17;;;;;;;;;;511109;28;1218;-61
2022/11/18 00:38:45;;;;;;;6.78;3.00;;;;;;;;;;512779;28;1172;-61
2022/11/18 00:39:01;;;;;;;7.00;3.00;;;;;;;;;;513048;28;1091;-61
2022/11/18 00:39:18;;;;;;;5.97;2.93;;;;;;;;;;514314;28;1126;-61
2022/11/18 00:39:33;;;;;;;7.75;3.13;;;;;;;;;;514348;28;1119;-61
2022/11/18 00:39:48;;;;;;;7.95;3.10;;;;;;;;;;512435;28;1234;-61
2022/11/18 00:40:04;;;;;;;6.63;2.90;;;;;;;;;;512316;28;1096;-61
2022/11/18 00:40:19;;;;;;;6.90;3.03;;;;;;;;;;512075;28;1120;-61
2022/11/18 00:40:35;;;;;;;6.23;3.20;;;;;;;;;;512888;28;1202;-61
2022/11/18 00:41:01;;;;;;;7.33;3.20;;;;;;;;;;513694;28;1183;-61
2022/11/18 00:41:16;;;;;;;8.10;3.15;;;;;;;;;;511838;28;1250;-61
2022/11/18 00:42:52;;;;;;;7.22;3.30;;;;;;;;;;513746;28;973;-61
2022/11/18 00:43:07;;;;;;;7.43;3.20;;;;;;;;;;514288;28;997;-60
2022/11/18 00:43:23;;;;;;;6.17;3.10;;;;;;;;;;514937;28;1194;-61
2022/11/18 00:43:38;;;;;;;6.70;3.13;;;;;;;;;;514550;28;1206;-60
2022/11/18 00:43:53;;;;;;;8.07;3.22;;;;;;;;;;511139;28;1175;-61
2022/11/18 00:44:09;;;;;;;7.50;3.10;;;;;;;;;;512744;28;1230;-61
2022/11/18 00:44:24;;;;;;;7.87;3.20;;;;;;;;;;512248;28;1222;-61
2022/11/18 00:44:40;;;;;;;8.93;3.23;;;;;;;;;;513476;28;1165;-60
2022/11/18 00:44:55;;;;;;;7.63;3.00;;;;;;;;;;511176;28;1131;-61
2022/11/18 00:45:10;;;;;;;7.75;2.90;;;;;;;;;;512226;28;1063;-60
2022/11/18 00:45:26;;;;;;;8.77;3.20;;;;;;;;;;512963;28;1222;-61
2022/11/18 00:45:42;;;;;;;8.57;3.30;;;;;;;;;;512706;28;1048;-61
2022/11/18 00:45:57;;;;;;;8.25;3.40;;;;;;;;;;515074;28;1119;-61
2022/11/18 00:46:12;;;;;;;7.07;3.38;;;;;;;;;;510306;28;1285;-61
2022/11/18 00:46:28;;;;;;;8.27;3.10;;;;;;;;;;512927;28;1155;-60
2022/11/18 00:46:43;;;;;;;10.23;3.30;;;;;;;;;;513306;28;1152;-60
2022/11/18 00:46:58;;;;;;;7.97;3.22;;;;;;;;;;512844;28;1324;-60
2022/11/18 00:47:13;;;;;;;6.87;2.90;;;;;;;;;;512133;28;1067;-61
2022/11/18 00:47:29;;;;;;;6.83;3.03;;;;;;;;;;512081;28;1218;-61
2022/11/18 00:47:44;;;;;;;5.93;3.23;;;;;;;;;;514247;28;1490;-61
2022/11/18 00:47:59;;;;;;;7.07;3.30;;;;;;;;;;513154;28;1084;-61
2022/11/18 00:48:20;;;;;;;8.27;3.20;;;;;;;;;;515249;28;1064;-61
2022/11/18 00:48:36;;;;;;;7.22;3.20;;;;;;;;;;513339;28;1405;-61
2022/11/18 00:48:51;;;;;;;7.25;3.20;;;;;;;;;;513227;28;1080;-61
2022/11/18 00:49:08;;;;;;;7.77;3.10;;;;;;;;;;512974;28;1143;-61
2022/11/18 00:49:23;;;;;;;7.70;3.20;;;;;;;;;;511531;28;1331;-62
2022/11/18 00:49:38;;;;;;;10.25;3.13;;;;;;;;;;511693;28;1215;-61
2022/11/18 00:49:54;;;;;;;8.97;3.10;;;;;;;;;;513362;28;1115;-61
2022/11/18 00:50:09;;;;;;;5.93;3.13;;;;;;;;;;512765;28;1207;-61
2022/11/18 00:50:24;;;;;;;8.05;3.30;;;;;;;;;;510032;28;1273;-61
2022/11/18 00:50:40;;;;;;;8.60;3.33;;;;;;;;;;511956;28;1143;-61
2022/11/18 00:50:58;;;;;;;7.57;3.33;;;;;;;;;;511650;28;1111;-60
2022/11/18 00:51:17;;;;;;;8.27;3.30;;;;;;;;;;512700;28;1071;-60
2022/11/18 00:51:33;;;;;;;9.13;3.25;;;;;;;;;;509770;28;1264;-61
2022/11/18 00:51:49;;;;;;;8.80;3.10;;;;;;;;;;513117;28;1135;-61
2022/11/18 00:52:05;;;;;;;7.68;3.10;;;;;;;;;;512467;28;1381;-61
2022/11/18 00:52:20;;;;;;;6.85;3.08;;;;;;;;;;511045;28;953;-61
2022/11/18 00:52:35;;;;;;;6.03;3.00;;;;;;;;;;511846;28;1234;-61
2022/11/18 00:52:51;;;;;;;7.33;3.10;;;;;;;;;;513265;28;1096;-61
2022/11/18 00:53:06;;;;;;;8.02;3.15;;;;;;;;;;513631;28;1127;-61
2022/11/18 00:53:23;;;;;;;7.30;3.13;;;;;;;;;;511753;28;1245;-61
2022/11/18 00:53:38;;;;;;;9.40;3.20;;;;;;;;;;512232;28;1253;-62
2022/11/18 00:53:54;;;;;;;9.63;3.20;;;;;;;;;;513383;28;1431;-61
2022/11/18 00:54:09;;;;;;;8.43;3.10;;;;;;;;;;513467;28;1380;-62
2022/11/18 00:54:24;;;;;;;8.27;3.30;;;;;;;;;;511669;28;1276;-62
2022/11/18 00:54:39;;;;;;;9.97;3.50;;;;;;;;;;512369;28;1228;-61
2022/11/18 00:54:55;;;;;;;7.53;3.40;;;;;;;;;;511427;28;1920;-61
2022/11/18 00:55:10;;;;;;;7.87;3.30;;;;;;;;;;511076;28;1323;-62
2022/11/18 00:55:25;;;;;;;9.43;3.13;;;;;;;;;;510486;28;1297;-61
2022/11/18 00:55:41;;;;;;;9.60;2.93;;;;;;;;;;509124;28;1319;-62
2022/11/18 00:55:56;;;;;;;9.00;2.97;;;;;;;;;;512291;28;1257;-62
2022/11/18 00:56:11;;;;;;;6.97;3.07;;;;;;;;;;511661;28;1557;-61
2022/11/18 00:56:27;;;;;;;6.37;2.90;;;;;;;;;;510998;28;1260;-61
2022/11/18 00:56:42;;;;;;;5.82;2.70;;;;;;;;;;512701;28;1382;-61
2022/11/18 00:56:57;;;;;;;5.07;2.47;;;;;;;;;;509657;28;1364;-62
2022/11/18 00:57:13;;;;;;;5.15;2.47;;;;;;;;;;509927;28;1514;-61
2022/11/18 00:57:28;;;;;;;7.07;2.70;;;;;;;;;;509987;28;1261;-61
2022/11/18 00:57:43;;;;;;;9.50;3.00;;;;;;;;;;511540;28;1233;-62
2022/11/18 00:57:59;;;;;;;8.52;2.88;;;;;;;;;;509288;28;1346;-62
2022/11/18 00:58:14;;;;;;;5.90;2.63;;;;;;;;;;510762;28;1578;-61
2022/11/18 00:58:29;;;;;;;6.20;2.70;;;;;;;;;;510469;28;1507;-61
2022/11/18 00:58:44;;;;;;;7.90;2.70;;;;;;;;;;510910;28;1318;-61
2022/11/18 00:59:00;;;;;;;8.30;2.75;;;;;;;;;;510126;28;1556;-61
2022/11/18 00:59:15;;;;;;;9.20;3.03;;;;;;;;;;508821;28;1254;-61
2022/11/18 00:59:30;;;;;;;9.77;3.20;;;;;;;;;;510364;28;1609;-61
2022/11/18 00:59:46;;;;;;;9.93;3.00;;;;;;;;;;510648;28;1325;-62
2022/11/18 01:00:01;;;;;;;8.20;2.80;;;;;;;;;;510501;28;1519;-61
2022/11/18 01:00:16;;;;;;;6.93;2.63;;;;;;;;;;509107;28;1313;-61
2022/11/18 01:00:32;;;;;;;7.90;2.70;;;;;;;;;;509611;28;1280;-62
2022/11/18 01:00:50;;;;;;;7.03;2.70;;;;;;;;;;509140;28;1535;-61
2022/11/18 01:01:06;;;;;;;6.85;2.65;;;;;;;;;;510936;28;1225;-62
2022/11/18 01:01:21;;;;;;;6.73;2.63;;;;;;;;;;511570;28;1240;-61
2022/11/18 01:01:36;;;;;;;6.20;2.73;;;;;;;;;;512140;28;1660;-61
2022/11/18 01:01:52;;;;;;;7.30;2.80;;;;;;;;;;512748;28;1506;-62
2022/11/18 01:02:07;;;;;;;6.87;2.60;;;;;;;;;;512410;28;1382;-61
2022/11/18 01:02:22;;;;;;;6.37;2.70;;;;;;;;;;510194;28;1370;-61
2022/11/18 01:02:37;;;;;;;7.57;3.00;;;;;;;;;;509799;28;1272;-61
2022/11/18 01:02:53;;;;;;;7.90;2.90;;;;;;;;;;511945;28;1490;-61
2022/11/18 01:03:09;;;;;;;7.60;2.83;;;;;;;;;;512307;28;1462;-62
2022/11/18 01:03:24;;;;;;;7.28;2.97;;;;;;;;;;512895;28;1296;-62
2022/11/18 01:03:39;;;;;;;6.60;2.90;;;;;;;;;;512059;28;1283;-61
2022/11/18 01:03:55;;;;;;;6.17;2.60;;;;;;;;;;511778;28;1321;-61
2022/11/18 01:04:10;;;;;;;7.20;2.60;;;;;;;;;;512650;28;1518;-61
2022/11/18 01:04:25;;;;;;;8.50;2.75;;;;;;;;;;512700;28;1474;-61
2022/11/18 01:04:41;;;;;;;7.60;2.90;;;;;;;;;;512930;28;1561;-61
2022/11/18 01:04:56;;;;;;;6.27;3.00;;;;;;;;;;511855;28;1149;-62
2022/11/18 01:05:11;;;;;;;6.88;2.85;;;;;;;;;;513563;28;1274;-61
2022/11/18 01:05:27;;;;;;;6.70;2.57;;;;;;;;;;514249;28;1496;-61
2022/11/18 01:05:42;;;;;;;7.17;2.80;;;;;;;;;;514584;28;1631;-61
2022/11/18 01:05:57;;;;;;;7.45;2.72;;;;;;;;;;514245;28;1271;-61
2022/11/18 01:06:13;;;;;;;7.13;2.57;;;;;;;;;;513003;28;1215;-61
2022/11/18 01:06:29;;;;;;;6.23;2.60;;;;;;;;;;514113;28;1294;-61
2022/11/18 01:06:44;;;;;;;5.72;2.50;;;;;;;;;;515480;28;1128;-61
2022/11/18 01:06:59;;;;;;;7.17;2.70;;;;;;;;;;514468;28;1587;-62
2022/11/18 01:07:14;;;;;;;8.45;2.97;;;;;;;;;;514899;28;1215;-61
2022/11/18 01:07:30;;;;;;;8.77;2.90;;;;;;;;;;512071;28;1325;-61
2022/11/18 01:07:45;;;;;;;7.60;2.80;;;;;;;;;;513171;28;1251;-61
2022/11/18 01:08:01;;;;;;;6.28;2.55;;;;;;;;;;511544;28;1553;-61
2022/11/18 01:08:18;;;;;;;5.87;2.30;;;;;;;;;;511095;28;1277;-61
2022/11/18 01:08:34;;;;;;;6.82;2.53;;;;;;;;;;510158;28;1338;-61
2022/11/18 01:08:49;;;;;;;6.50;2.60;;;;;;;;;;509984;28;1592;-61
2022/11/18 01:09:05;;;;;;;5.43;2.50;;;;;;;;;;509921;28;1198;-61
2022/11/18 01:09:20;;;;;;;6.32;2.65;;;;;;;;;;507456;28;1647;-61
2022/11/18 01:09:35;;;;;;;6.13;2.60;;;;;;;;;;510044;28;1321;-61
2022/11/18 01:09:51;;;;;;;5.83;2.50;;;;;;;;;;510772;28;1637;-61
2022/11/18 01:10:06;;;;;;;6.57;2.60;;;;;;;;;;510514;28;1280;-61
2022/11/18 01:10:22;;;;;;;6.63;2.60;;;;;;;;;;510553;28;1542;-61
2022/11/18 01:10:38;;;;;;;6.93;2.60;;;;;;;;;;512140;28;1236;-62
2022/11/18 01:10:53;;;;;;;6.90;2.85;;;;;;;;;;510849;28;1304;-62
2022/11/18 01:13:27;;;;;;;9.43;2.80;;;;;;;;;;514140;28;1259;-61
2022/11/18 01:13:43;;;;;;;8.05;2.80;;;;;;;;;;513424;28;1235;-61
2022/11/18 01:13:58;;;;;;;7.85;2.50;;;;;;;;;;513785;28;1235;-61
2022/11/18 01:14:13;;;;;;;7.33;2.60;;;;;;;;;;512801;28;1299;-61
2022/11/18 01:14:29;;;;;;;5.73;2.47;;;;;;;;;;513637;28;1493;-60
2022/11/18 01:14:44;;;;;;;5.43;2.50;;;;;;;;;;513568;28;1288;-62
2022/11/18 01:14:59;;;;;;;5.37;2.60;;;;;;;;;;508862;28;1986;-61
2022/11/18 01:15:15;;;;;;;7.03;2.70;;;;;;;;;;511188;28;1269;-62
2022/11/18 01:15:30;;;;;;;7.70;2.83;;;;;;;;;;509113;28;1769;-61
2022/11/18 01:15:53;;;;;;;6.20;2.70;;;;;;;;;;511745;28;1343;-61
2022/11/18 01:16:09;;;;;;;6.57;2.58;;;;;;;;;;510255;28;1296;-62
2022/11/18 01:16:26;;;;;;;6.90;2.63;;;;;;;;;;510394;28;1253;-61
2022/11/18 01:16:41;;;;;;;6.35;2.63;;;;;;;;;;510134;28;1229;-62
2022/11/18 01:16:57;;;;;;;6.00;2.50;;;;;;;;;;509844;28;1292;-61
2022/11/18 01:17:12;;;;;;;6.72;2.55;;;;;;;;;;509075;28;1185;-61
2022/11/18 01:17:31;;;;;;;7.90;2.70;;;;;;;;;;509603;28;1397;-62
2022/11/18 01:17:46;;;;;;;5.90;2.42;;;;;;;;;;510678;28;1260;-61
2022/11/18 01:18:01;;;;;;;6.67;2.50;;;;;;;;;;508289;28;1360;-61
2022/11/18 01:18:19;;;;;;;7.43;2.60;;;;;;;;;;510558;28;1495;-61
2022/11/18 01:18:34;;;;;;;6.68;2.70;;;;;;;;;;509990;28;1306;-62
2022/11/18 01:18:50;;;;;;;6.77;2.60;;;;;;;;;;509571;28;1260;-62
2022/11/18 01:19:05;;;;;;;8.25;2.67;;;;;;;;;;510732;28;1325;-61
2022/11/18 01:19:21;;;;;;;9.37;2.80;;;;;;;;;;509086;28;1487;-61
2022/11/18 01:19:36;;;;;;;8.20;2.78;;;;;;;;;;508205;28;1383;-62
2022/11/18 01:19:51;;;;;;;5.67;2.67;;;;;;;;;;507944;28;1536;-62
2022/11/18 01:20:07;;;;;;;4.87;2.70;;;;;;;;;;508177;29;1519;-61
2022/11/18 01:20:22;;;;;;;5.50;2.60;;;;;;;;;;509132;29;1430;-61
2022/11/18 01:20:38;;;;;;;6.07;2.50;;;;;;;;;;508386;28;1520;-62
2022/11/18 01:20:58;;;;;;;5.73;2.50;;;;;;;;;;510916;28;1289;-61
2022/11/18 01:21:13;;;;;;;6.18;2.50;;;;;;;;;;510971;28;1057;-62
2022/11/18 01:21:29;;;;;;;7.68;2.50;;;;;;;;;;512690;28;1494;-62
2022/11/18 01:21:44;;;;;;;7.77;2.50;;;;;;;;;;512686;28;1163;-61
2022/11/18 01:22:02;;;;;;;7.53;2.60;;;;;;;;;;511709;28;1204;-61
2022/11/18 01:22:17;;;;;;;6.32;2.42;;;;;;;;;;511880;28;1459;-62
2022/11/18 01:22:33;;;;;;;4.97;2.40;;;;;;;;;;511601;28;1842;-61
2022/11/18 01:22:48;;;;;;;6.33;2.60;;;;;;;;;;511269;28;1193;-61
2022/11/18 01:23:03;;;;;;;6.27;2.50;;;;;;;;;;509523;28;1517;-61
2022/11/18 01:23:20;;;;;;;6.63;2.50;;;;;;;;;;510744;28;1503;-62
2022/11/18 01:23:35;;;;;;;6.68;2.67;;;;;;;;;;511754;28;1455;-61
2022/11/18 01:23:50;;;;;;;6.30;2.70;;;;;;;;;;511232;28;1403;-61
2022/11/18 01:24:05;;;;;;;6.03;2.57;;;;;;;;;;512390;28;1439;-61
2022/11/18 01:24:21;;;;;;;5.88;2.40;;;;;;;;;;507143;28;1294;-61
2022/11/18 01:24:37;;;;;;;6.55;2.42;;;;;;;;;;510684;28;1522;-62
2022/11/18 01:24:52;;;;;;;7.33;2.50;;;;;;;;;;510247;28;1605;-61
2022/11/18 01:25:08;;;;;;;7.70;2.60;;;;;;;;;;510303;28;1202;-61
2022/11/18 01:25:23;;;;;;;6.90;2.55;;;;;;;;;;509422;28;1155;-61
2022/11/18 01:25:40;;;;;;;6.40;2.33;;;;;;;;;;511129;28;1154;-61
2022/11/18 01:25:55;;;;;;;6.82;2.35;;;;;;;;;;512006;28;1119;-61
2022/11/18 01:26:13;;;;;;;5.90;2.60;;;;;;;;;;511618;28;1127;-61
2022/11/18 01:26:29;;;;;;;6.22;2.83;;;;;;;;;;512004;28;1199;-61
2022/11/18 01:26:44;;;;;;;17.23;11.63;;;;;;;;;;512974;28;1192;-61
2022/11/18 01:27:00;;;;;;;41.50;32.90;;;;;;;;;;512336;28;1225;-61
2022/11/18 01:27:15;;;;;;;44.28;36.03;;;;;;;;;;511840;28;1116;-62
2022/11/18 01:27:31;;;;;;;22.07;16.93;;;;;;;;;;511435;28;1174;-61
2022/11/18 01:27:46;;;;;;;16.20;10.70;;;;;;;;;;510152;28;1473;-61
2022/11/18 01:28:02;;;;;;;20.90;15.40;;;;;;;;;;510809;28;1578;-62
2022/11/18 01:28:17;;;;;;;20.05;16.30;;;;;;;;;;512385;28;1220;-61
2022/11/18 01:28:33;;;;;;;16.55;12.50;;;;;;;;;;509743;28;1096;-61
2022/11/18 01:28:48;;;;;;;11.27;7.03;;;;;;;;;;510420;28;1128;-62
2022/11/18 01:29:03;;;;;;;7.53;2.73;;;;;;;;;;511986;28;1525;-62
2022/11/18 01:29:18;;;;;;;6.93;2.40;;;;;;;;;;513046;28;1154;-61
2022/11/18 01:29:35;;;;;;;6.47;2.90;;;;;;;;;;513041;28;1088;-62
2022/11/18 01:29:50;;;;;;;7.28;3.10;;;;;;;;;;512831;28;1225;-61
2022/11/18 01:30:06;;;;;;;6.65;2.78;;;;;;;;;;513322;28;1175;-61
2022/11/18 01:30:22;;;;;;;6.47;2.70;;;;;;;;;;511817;28;1477;-61
2022/11/18 01:30:39;;;;;;;6.47;2.90;;;;;;;;;;511811;28;1127;-62
2022/11/18 01:31:03;;;;;;;6.25;2.80;;;;;;;;;;510873;28;1152;-61
2022/11/18 01:31:18;;;;;;;7.07;3.50;;;;;;;;;;509802;28;957;-62
2022/11/18 01:31:33;;;;;;;8.10;4.40;;;;;;;;;;511901;28;981;-61
2022/11/18 01:31:49;;;;;;;6.83;3.70;;;;;;;;;;509868;28;1218;-62
2022/11/18 01:32:04;;;;;;;7.57;3.17;;;;;;;;;;510871;28;1175;-61
2022/11/18 01:32:19;;;;;;;7.97;3.13;;;;;;;;;;509653;28;1301;-61
2022/11/18 01:32:35;;;;;;;7.17;3.00;;;;;;;;;;511007;28;1140;-61
2022/11/18 01:32:50;;;;;;;6.57;2.73;;;;;;;;;;509220;28;1750;-61
2022/11/18 01:33:06;;;;;;;7.23;2.60;;;;;;;;;;508546;28;1231;-61
2022/11/18 01:33:21;;;;;;;7.50;2.70;;;;;;;;;;510602;28;1100;-61
2022/11/18 01:33:37;;;;;;;6.90;2.73;;;;;;;;;;508178;28;1394;-62
2022/11/18 01:33:52;;;;;;;6.53;2.63;;;;;;;;;;510913;28;1029;-61
2022/11/18 01:34:07;;;;;;;5.40;2.60;;;;;;;;;;510152;28;1341;-61
2022/11/18 01:34:22;;;;;;;6.43;2.60;;;;;;;;;;512448;28;1186;-60
2022/11/18 01:34:38;;;;;;;7.50;2.70;;;;;;;;;;512268;28;1108;-60
2022/11/18 01:34:53;;;;;;;7.23;2.60;;;;;;;;;;510794;28;1123;-61
2022/11/18 01:35:09;;;;;;;7.95;2.60;;;;;;;;;;511421;28;1977;-60
2022/11/18 01:35:24;;;;;;;7.90;2.80;;;;;;;;;;508044;28;1229;-61
2022/11/18 01:35:41;;;;;;;7.47;2.80;;;;;;;;;;510217;28;1089;-60
2022/11/18 01:35:56;;;;;;;7.60;2.90;;;;;;;;;;511137;28;1362;-60
2022/11/18 01:36:14;;;;;;;6.53;3.03;;;;;;;;;;512934;28;1332;-61
2022/11/18 01:36:30;;;;;;;6.97;2.97;;;;;;;;;;512592;28;1467;-60
2022/11/18 01:36:45;;;;;;;8.30;2.80;;;;;;;;;;511864;28;1242;-61
2022/11/18 01:37:00;;;;;;;7.83;2.70;;;;;;;;;;513537;28;1205;-61
2022/11/18 01:37:16;;;;;;;7.27;3.00;;;;;;;;;;513242;28;1206;-62
2022/11/18 01:37:31;;;;;;;8.02;3.13;;;;;;;;;;514161;28;1178;-62
2022/11/18 01:37:46;;;;;;;8.70;3.20;;;;;;;;;;513755;28;1076;-60
2022/11/18 01:38:02;;;;;;;8.53;3.40;;;;;;;;;;514170;28;1091;-61
2022/11/18 01:38:18;;;;;;;7.55;3.08;;;;;;;;;;514693;28;1520;-61
2022/11/18 01:38:33;;;;;;;7.50;2.90;;;;;;;;;;515185;28;1080;-61
2022/11/18 01:38:49;;;;;;;8.57;3.10;;;;;;;;;;514471;28;1211;-61
2022/11/18 01:39:04;;;;;;;8.32;2.95;;;;;;;;;;511849;28;1313;-61
2022/11/18 01:39:20;;;;;;;7.63;2.90;;;;;;;;;;512659;28;1219;-61
2022/11/18 01:39:35;;;;;;;7.23;2.80;;;;;;;;;;511118;28;2558;-60
2022/11/18 01:39:50;;;;;;;6.57;2.92;;;;;;;;;;511299;28;1636;-60
2022/11/18 01:40:08;;;;;;;5.80;3.00;;;;;;;;;;510375;28;1175;-61
2022/11/18 01:40:26;;;;;;;6.38;3.05;;;;;;;;;;509195;28;1273;-61
2022/11/18 01:40:41;;;;;;;7.97;3.17;;;;;;;;;;509594;28;1156;-61
2022/11/18 01:40:56;;;;;;;8.10;2.80;;;;;;;;;;508718;28;1317;-61
2022/11/18 01:41:12;;;;;;;6.53;2.80;;;;;;;;;;510524;28;1270;-61
2022/11/18 01:41:27;;;;;;;6.90;2.97;;;;;;;;;;510173;28;996;-61
2022/11/18 01:41:42;;;;;;;6.93;3.20;;;;;;;;;;511210;28;1450;-60
2022/11/18 01:41:58;;;;;;;8.17;3.33;;;;;;;;;;513332;28;1159;-60
2022/11/18 01:42:16;;;;;;;8.52;3.00;;;;;;;;;;511239;28;1222;-61
2022/11/18 01:42:31;;;;;;;6.90;3.00;;;;;;;;;;511761;28;1500;-61
2022/11/18 01:42:46;;;;;;;7.17;3.07;;;;;;;;;;513082;28;1158;-61
2022/11/18 01:43:04;;;;;;;6.87;2.97;;;;;;;;;;511480;28;1124;-61
2022/11/18 01:43:21;;;;;;;8.18;3.20;;;;;;;;;;511565;28;1100;-61
2022/11/18 01:43:58;;;;;;;8.20;3.20;;;;;;;;;;512623;28;1306;-61
2022/11/18 01:44:50;;;;;;;6.95;3.00;;;;;;;;;;511298;28;1127;-60
2022/11/18 01:45:08;;;;;;;5.03;2.60;;;;;;;;;;511869;28;1237;-61
2022/11/18 01:45:36;;;;;;;5.75;2.75;;;;;;;;;;511829;28;1419;-61
2022/11/18 01:45:53;;;;;;;7.43;3.05;;;;;;;;;;509008;28;1177;-60